Home PIREPS Pireps

Flight BEL7488

  • Submitted By: Carl Hermans
  • Departure Airport: Bruxelles National (EBBR)
  • Arrival Airport: Tegel (EDDT)
  • Aircraft: A319-112 (OO-SSG)
  • Flight Time: 01.20
  • Date Submitted: 23/11/2017
  • Status: Accepted
Flight Details
Gross Revenue:
(123 load / € 86.00 per unit
€ 10,578.00
Fuel Cost:
(1770 fuel used @ 5.1 / unit)
€ 9,027.00

Additional Log Information:

View Log

Aircraft Used in flight is x737-800 Qantas HD (VH-XZN)
17:28 Brakes are On
17:28 Brakes are Released
17:33 Brakes are On
17:33 Brakes are Released
17:33 Brakes are On
17:33 Brakes are Released
17:33 Brakes are On
17:33 Brakes are Released
17:33 Brakes are On
17:34 Brakes are Released
17:34 Brakes are On
17:36 Brakes are Released
17:36 You Took off @ 153 Knots and Flaps at Position 3
Departure Weather
EBBR 231620Z 24010KT 210V290 CAVOK 11/07 Q1007 NOSIGrn
17:36 Landing Gear Up @ 176 Knots and 260 Feet
17:38 Below 10000 feet you are not allowed to go over 250 knots
17:38 You exceeded maximum bank angle
17:38 You are Airborne and your Navigation Lights are off
17:42 Above FL100 you need to switch of the landing lights
18:43 Landing Gear Down @ 137 Knots and 1840 Feet
18:46 Stalling
18:46 Recovered from Stall
18:46 Stalling
18:46 Recovered from Stall
18:46 Stalling
18:46 Recovered from Stall
18:46 You Landed @ 101 Knots and with -1550 Vertical Speed
Arrival Weather
EDDT 231720Z 21012KT CAVOK 12/05 Q1007 NOSIGrn
18:46 Your Landing was very hard
18:46 Brakes are On
18:47 Brakes are Released
18:47 Brakes are On
18:47 Brakes are Released
18:49 Brakes are On
18:49 Brakes are Released
18:49 Brakes are On
18:49 Brussels Bel-Track1.0.1.2

Route Map

Corporate About Us Our Team Vacancies Information Fleet Route Network Rules and Regulations Operations Flight Schedules Event Center Tours Partners IVAO Vatsim Acars dev FSCB

fb Users Online Belgium Roger Wijns, United Kingdom David Chenery,
2 Pilot(s) and 174 Guest(s) Online
CMS by phpVMS - Design by Crazycreatives.com - Copyright © 2018 - Brussels Airlines Virtual